KCUH/CUH METAR and TAF weather

Enter ICAO airport designator
Station Type Date Time Source
KCUH METAR 2021/10/22 19:35 UTC NOAA

KCUH 221935Z AUTO 18007KT 10SM SCT048 24/08 A3001 RMK AO2 T02410078


Station Type Date Time Source
KCUH Decoded METAR 2021/10/22 19:35 UTC NOAA

Cushing, Cushing Municipal Airport, OK, United States (KCUH) 35-56-59N 096-46-22W
Oct 22, 2021 - 03:35 PM EDT / 2021.10.22 1935 UTC
Wind: from the S (180 degrees) at 8 MPH (7 KT):0
Visibility: 10 mile(s):0
Sky conditions: partly cloudy
Temperature: 75.4 F (24.1 C)
Dew Point: 46.0 F (7.8 C)
Relative Humidity: 35%
Pressure (altimeter): 30.01 in. Hg (1016 hPa)
ob: KCUH 221935Z AUTO 18007KT 10SM SCT048 24/08 A3001 RMK AO2 T02410078
cycle: 19

Station Type Date Time Source
KCUH TAF UTC NOAA

Error!

Example: see airport list